sensor_id;sensor_type;location;lat;lon;timestamp;P1;durP1;ratioP1;P2;durP2;ratioP2
11817;SDS011;5966;52.402;5.322;2023-04-25T00:00:23;8.70;;;2.50;;
11817;SDS011;5966;52.402;5.322;2023-04-25T00:02:51;7.20;;;2.60;;
11817;SDS011;5966;52.402;5.322;2023-04-25T00:05:21;10.23;;;2.73;;
11817;SDS011;5966;52.402;5.322;2023-04-25T00:07:49;6.90;;;2.17;;
11817;SDS011;5966;52.402;5.322;2023-04-25T00:10:17;12.60;;;2.80;;
11817;SDS011;5966;52.402;5.322;2023-04-25T00:12:46;8.17;;;2.00;;
11817;SDS011;5966;52.402;5.322;2023-04-25T00:15:14;9.17;;;2.90;;
11817;SDS011;5966;52.402;5.322;2023-04-25T00:17:44;10.87;;;2.50;;
11817;SDS011;5966;52.402;5.322;2023-04-25T00:20:12;9.23;;;2.33;;
11817;SDS011;5966;52.402;5.322;2023-04-25T00:22:42;5.40;;;1.93;;
11817;SDS011;5966;52.402;5.322;2023-04-25T00:25:10;7.97;;;2.37;;
11817;SDS011;5966;52.402;5.322;2023-04-25T00:27:38;9.37;;;2.63;;
11817;SDS011;5966;52.402;5.322;2023-04-25T00:30:08;9.57;;;2.10;;
11817;SDS011;5966;52.402;5.322;2023-04-25T00:32:36;8.77;;;2.40;;
11817;SDS011;5966;52.402;5.322;2023-04-25T00:35:04;9.63;;;2.30;;
11817;SDS011;5966;52.402;5.322;2023-04-25T00:37:33;15.77;;;2.47;;
11817;SDS011;5966;52.402;5.322;2023-04-25T00:40:02;7.83;;;2.40;;
11817;SDS011;5966;52.402;5.322;2023-04-25T00:42:34;5.43;;;2.03;;
11817;SDS011;5966;52.402;5.322;2023-04-25T00:45:04;14.13;;;2.70;;
11817;SDS011;5966;52.402;5.322;2023-04-25T00:47:34;10.40;;;2.43;;
11817;SDS011;5966;52.402;5.322;2023-04-25T00:50:03;7.20;;;2.73;;
11817;SDS011;5966;52.402;5.322;2023-04-25T00:52:32;7.70;;;2.20;;
11817;SDS011;5966;52.402;5.322;2023-04-25T00:55:00;10.97;;;1.90;;
11817;SDS011;5966;52.402;5.322;2023-04-25T00:57:29;6.67;;;1.90;;
11817;SDS011;5966;52.402;5.322;2023-04-25T00:59:57;6.33;;;1.90;;
11817;SDS011;5966;52.402;5.322;2023-04-25T01:02:26;5.50;;;1.73;;
11817;SDS011;5966;52.402;5.322;2023-04-25T01:04:54;8.17;;;2.07;;
11817;SDS011;5966;52.402;5.322;2023-04-25T01:07:22;9.00;;;1.93;;
11817;SDS011;5966;52.402;5.322;2023-04-25T01:09:51;8.43;;;2.13;;
11817;SDS011;5966;52.402;5.322;2023-04-25T01:12:19;9.83;;;2.07;;
11817;SDS011;5966;52.402;5.322;2023-04-25T01:14:49;7.10;;;2.53;;
11817;SDS011;5966;52.402;5.322;2023-04-25T01:17:17;8.17;;;1.93;;
11817;SDS011;5966;52.402;5.322;2023-04-25T01:19:47;8.77;;;2.00;;
11817;SDS011;5966;52.402;5.322;2023-04-25T01:22:16;3.43;;;1.63;;
11817;SDS011;5966;52.402;5.322;2023-04-25T01:24:44;8.87;;;2.40;;
11817;SDS011;5966;52.402;5.322;2023-04-25T01:27:13;6.97;;;1.80;;
11817;SDS011;5966;52.402;5.322;2023-04-25T01:29:41;10.70;;;2.23;;
11817;SDS011;5966;52.402;5.322;2023-04-25T01:32:09;8.10;;;2.50;;
11817;SDS011;5966;52.402;5.322;2023-04-25T01:34:38;10.97;;;2.33;;
11817;SDS011;5966;52.402;5.322;2023-04-25T01:37:06;4.63;;;2.00;;
11817;SDS011;5966;52.402;5.322;2023-04-25T01:39:35;6.03;;;2.03;;
11817;SDS011;5966;52.402;5.322;2023-04-25T01:42:03;8.17;;;1.93;;
11817;SDS011;5966;52.402;5.322;2023-04-25T01:44:31;6.13;;;2.07;;
11817;SDS011;5966;52.402;5.322;2023-04-25T01:46:59;9.27;;;2.17;;
11817;SDS011;5966;52.402;5.322;2023-04-25T01:49:27;7.03;;;1.73;;
11817;SDS011;5966;52.402;5.322;2023-04-25T01:51:55;5.13;;;1.90;;
11817;SDS011;5966;52.402;5.322;2023-04-25T01:54:23;7.13;;;1.73;;
11817;SDS011;5966;52.402;5.322;2023-04-25T01:56:52;5.37;;;2.07;;
11817;SDS011;5966;52.402;5.322;2023-04-25T01:59:24;5.40;;;1.73;;
11817;SDS011;5966;52.402;5.322;2023-04-25T02:01:52;9.17;;;1.97;;
11817;SDS011;5966;52.402;5.322;2023-04-25T02:04:20;7.23;;;1.93;;
11817;SDS011;5966;52.402;5.322;2023-04-25T02:06:48;8.43;;;2.20;;
11817;SDS011;5966;52.402;5.322;2023-04-25T02:09:16;4.60;;;1.90;;
11817;SDS011;5966;52.402;5.322;2023-04-25T02:11:44;6.00;;;1.87;;
11817;SDS011;5966;52.402;5.322;2023-04-25T02:14:13;7.80;;;2.10;;
11817;SDS011;5966;52.402;5.322;2023-04-25T02:16:41;5.53;;;1.97;;
11817;SDS011;5966;52.402;5.322;2023-04-25T02:19:10;6.17;;;1.83;;
11817;SDS011;5966;52.402;5.322;2023-04-25T02:21:38;5.67;;;1.87;;
11817;SDS011;5966;52.402;5.322;2023-04-25T02:24:06;4.33;;;1.90;;
11817;SDS011;5966;52.402;5.322;2023-04-25T02:26:35;7.53;;;2.03;;
11817;SDS011;5966;52.402;5.322;2023-04-25T02:29:03;4.87;;;2.20;;
11817;SDS011;5966;52.402;5.322;2023-04-25T02:31:32;10.87;;;2.33;;
11817;SDS011;5966;52.402;5.322;2023-04-25T02:34:00;9.13;;;1.90;;
11817;SDS011;5966;52.402;5.322;2023-04-25T02:36:28;9.67;;;2.53;;
11817;SDS011;5966;52.402;5.322;2023-04-25T02:38:58;7.30;;;2.00;;
11817;SDS011;5966;52.402;5.322;2023-04-25T02:41:26;6.23;;;2.50;;
11817;SDS011;5966;52.402;5.322;2023-04-25T02:43:54;8.60;;;2.20;;
11817;SDS011;5966;52.402;5.322;2023-04-25T02:46:22;9.40;;;2.27;;
11817;SDS011;5966;52.402;5.322;2023-04-25T02:49:05;11.30;;;2.23;;
11817;SDS011;5966;52.402;5.322;2023-04-25T02:51:33;9.50;;;2.03;;
11817;SDS011;5966;52.402;5.322;2023-04-25T02:54:01;9.90;;;2.60;;
11817;SDS011;5966;52.402;5.322;2023-04-25T02:56:29;5.50;;;2.13;;
11817;SDS011;5966;52.402;5.322;2023-04-25T02:58:57;8.23;;;2.00;;
11817;SDS011;5966;52.402;5.322;2023-04-25T03:01:25;7.33;;;1.73;;
11817;SDS011;5966;52.402;5.322;2023-04-25T03:03:53;11.27;;;2.63;;
11817;SDS011;5966;52.402;5.322;2023-04-25T03:06:22;7.13;;;2.20;;
11817;SDS011;5966;52.402;5.322;2023-04-25T03:08:50;12.00;;;2.03;;
11817;SDS011;5966;52.402;5.322;2023-04-25T03:11:18;8.13;;;2.10;;
11817;SDS011;5966;52.402;5.322;2023-04-25T03:13:47;7.20;;;2.00;;
11817;SDS011;5966;52.402;5.322;2023-04-25T03:16:15;10.17;;;2.57;;
11817;SDS011;5966;52.402;5.322;2023-04-25T03:18:43;7.70;;;2.03;;
11817;SDS011;5966;52.402;5.322;2023-04-25T03:21:11;6.83;;;1.90;;
11817;SDS011;5966;52.402;5.322;2023-04-25T03:23:40;4.83;;;1.83;;
11817;SDS011;5966;52.402;5.322;2023-04-25T03:26:08;5.03;;;1.90;;
11817;SDS011;5966;52.402;5.322;2023-04-25T03:28:36;5.70;;;1.53;;
11817;SDS011;5966;52.402;5.322;2023-04-25T03:31:05;3.83;;;1.40;;
11817;SDS011;5966;52.402;5.322;2023-04-25T03:33:33;3.57;;;1.63;;
11817;SDS011;5966;52.402;5.322;2023-04-25T03:36:01;4.87;;;1.33;;
11817;SDS011;5966;52.402;5.322;2023-04-25T03:38:30;4.37;;;1.60;;
11817;SDS011;5966;52.402;5.322;2023-04-25T03:40:59;4.33;;;1.57;;
11817;SDS011;5966;52.402;5.322;2023-04-25T03:43:28;6.00;;;1.67;;
11817;SDS011;5966;52.402;5.322;2023-04-25T03:45:55;6.50;;;1.37;;
11817;SDS011;5966;52.402;5.322;2023-04-25T03:48:23;4.10;;;1.30;;
11817;SDS011;5966;52.402;5.322;2023-04-25T03:50:52;8.00;;;1.50;;
11817;SDS011;5966;52.402;5.322;2023-04-25T03:53:20;4.13;;;1.47;;
11817;SDS011;5966;52.402;5.322;2023-04-25T03:55:48;3.73;;;1.50;;
11817;SDS011;5966;52.402;5.322;2023-04-25T03:58:17;3.70;;;1.10;;
11817;SDS011;5966;52.402;5.322;2023-04-25T04:00:45;5.07;;;1.40;;
11817;SDS011;5966;52.402;5.322;2023-04-25T04:03:13;6.60;;;1.70;;
11817;SDS011;5966;52.402;5.322;2023-04-25T04:05:42;5.33;;;1.50;;
11817;SDS011;5966;52.402;5.322;2023-04-25T04:08:10;5.33;;;1.67;;
11817;SDS011;5966;52.402;5.322;2023-04-25T04:10:38;3.23;;;1.90;;
11817;SDS011;5966;52.402;5.322;2023-04-25T04:13:05;5.10;;;1.47;;
11817;SDS011;5966;52.402;5.322;2023-04-25T04:15:35;7.80;;;2.30;;
11817;SDS011;5966;52.402;5.322;2023-04-25T04:18:03;6.60;;;1.57;;
11817;SDS011;5966;52.402;5.322;2023-04-25T04:20:32;5.50;;;2.13;;
11817;SDS011;5966;52.402;5.322;2023-04-25T04:23:00;7.47;;;1.70;;
11817;SDS011;5966;52.402;5.322;2023-04-25T04:25:28;7.23;;;1.60;;
11817;SDS011;5966;52.402;5.322;2023-04-25T04:27:57;7.07;;;1.53;;
11817;SDS011;5966;52.402;5.322;2023-04-25T04:30:25;4.33;;;1.77;;
11817;SDS011;5966;52.402;5.322;2023-04-25T04:32:57;6.37;;;1.90;;
11817;SDS011;5966;52.402;5.322;2023-04-25T04:35:25;7.13;;;1.93;;
11817;SDS011;5966;52.402;5.322;2023-04-25T04:37:53;5.17;;;2.47;;
11817;SDS011;5966;52.402;5.322;2023-04-25T04:40:21;6.30;;;1.40;;
11817;SDS011;5966;52.402;5.322;2023-04-25T04:42:49;6.17;;;1.90;;
11817;SDS011;5966;52.402;5.322;2023-04-25T04:45:17;6.00;;;1.60;;
11817;SDS011;5966;52.402;5.322;2023-04-25T04:47:45;7.37;;;1.57;;
11817;SDS011;5966;52.402;5.322;2023-04-25T04:50:16;3.73;;;1.73;;
11817;SDS011;5966;52.402;5.322;2023-04-25T04:52:44;10.00;;;1.90;;
11817;SDS011;5966;52.402;5.322;2023-04-25T04:55:12;9.63;;;1.70;;
11817;SDS011;5966;52.402;5.322;2023-04-25T04:57:40;3.60;;;1.57;;
11817;SDS011;5966;52.402;5.322;2023-04-25T05:00:09;3.53;;;1.20;;
11817;SDS011;5966;52.402;5.322;2023-04-25T05:02:38;6.50;;;1.67;;
11817;SDS011;5966;52.402;5.322;2023-04-25T05:05:07;6.10;;;1.47;;
11817;SDS011;5966;52.402;5.322;2023-04-25T05:07:36;5.80;;;1.80;;
11817;SDS011;5966;52.402;5.322;2023-04-25T05:10:05;6.67;;;1.80;;
11817;SDS011;5966;52.402;5.322;2023-04-25T05:12:33;8.23;;;2.23;;
11817;SDS011;5966;52.402;5.322;2023-04-25T05:15:02;5.87;;;1.63;;
11817;SDS011;5966;52.402;5.322;2023-04-25T05:17:31;7.03;;;2.10;;
11817;SDS011;5966;52.402;5.322;2023-04-25T05:19:59;5.73;;;1.57;;
11817;SDS011;5966;52.402;5.322;2023-04-25T05:22:27;4.80;;;1.77;;
11817;SDS011;5966;52.402;5.322;2023-04-25T05:24:56;4.77;;;1.50;;
11817;SDS011;5966;52.402;5.322;2023-04-25T05:27:24;7.07;;;1.73;;
11817;SDS011;5966;52.402;5.322;2023-04-25T05:29:52;6.20;;;1.47;;
11817;SDS011;5966;52.402;5.322;2023-04-25T05:32:20;6.40;;;2.23;;
11817;SDS011;5966;52.402;5.322;2023-04-25T05:34:48;5.50;;;1.70;;
11817;SDS011;5966;52.402;5.322;2023-04-25T05:37:16;5.00;;;1.33;;
11817;SDS011;5966;52.402;5.322;2023-04-25T05:39:44;6.67;;;1.83;;
11817;SDS011;5966;52.402;5.322;2023-04-25T05:42:13;8.93;;;1.77;;
11817;SDS011;5966;52.402;5.322;2023-04-25T05:44:41;8.63;;;1.87;;
11817;SDS011;5966;52.402;5.322;2023-04-25T05:47:09;9.63;;;2.00;;
11817;SDS011;5966;52.402;5.322;2023-04-25T05:49:37;9.67;;;1.73;;
11817;SDS011;5966;52.402;5.322;2023-04-25T05:52:05;5.93;;;1.53;;
11817;SDS011;5966;52.402;5.322;2023-04-25T05:54:33;9.10;;;1.73;;
11817;SDS011;5966;52.402;5.322;2023-04-25T05:57:01;7.77;;;2.10;;
11817;SDS011;5966;52.402;5.322;2023-04-25T05:59:30;7.63;;;1.70;;
11817;SDS011;5966;52.402;5.322;2023-04-25T06:01:58;7.60;;;2.57;;
11817;SDS011;5966;52.402;5.322;2023-04-25T06:04:27;5.97;;;1.70;;
11817;SDS011;5966;52.402;5.322;2023-04-25T06:06:55;7.33;;;1.90;;
11817;SDS011;5966;52.402;5.322;2023-04-25T06:09:23;6.83;;;1.87;;
11817;SDS011;5966;52.402;5.322;2023-04-25T06:11:51;8.70;;;1.77;;
11817;SDS011;5966;52.402;5.322;2023-04-25T06:14:19;6.70;;;1.90;;
11817;SDS011;5966;52.402;5.322;2023-04-25T06:16:48;7.63;;;1.60;;
11817;SDS011;5966;52.402;5.322;2023-04-25T06:19:16;5.17;;;1.17;;
11817;SDS011;5966;52.402;5.322;2023-04-25T06:21:44;3.70;;;1.57;;
11817;SDS011;5966;52.402;5.322;2023-04-25T06:24:12;5.30;;;1.43;;
11817;SDS011;5966;52.402;5.322;2023-04-25T06:26:40;3.30;;;1.50;;
11817;SDS011;5966;52.402;5.322;2023-04-25T06:29:08;6.23;;;1.70;;
11817;SDS011;5966;52.402;5.322;2023-04-25T06:31:36;8.20;;;1.87;;
11817;SDS011;5966;52.402;5.322;2023-04-25T06:34:05;3.10;;;1.00;;
11817;SDS011;5966;52.402;5.322;2023-04-25T06:36:33;7.67;;;1.57;;
11817;SDS011;5966;52.402;5.322;2023-04-25T06:39:01;3.07;;;1.17;;
11817;SDS011;5966;52.402;5.322;2023-04-25T06:41:29;3.03;;;1.20;;
11817;SDS011;5966;52.402;5.322;2023-04-25T06:43:57;5.90;;;1.70;;
11817;SDS011;5966;52.402;5.322;2023-04-25T06:46:26;5.57;;;1.50;;
11817;SDS011;5966;52.402;5.322;2023-04-25T06:48:54;5.57;;;1.50;;
11817;SDS011;5966;52.402;5.322;2023-04-25T06:51:23;6.83;;;1.23;;
11817;SDS011;5966;52.402;5.322;2023-04-25T06:53:54;5.33;;;1.37;;
11817;SDS011;5966;52.402;5.322;2023-04-25T06:56:22;4.27;;;1.40;;
11817;SDS011;5966;52.402;5.322;2023-04-25T06:58:50;4.83;;;1.50;;
11817;SDS011;5966;52.402;5.322;2023-04-25T07:01:18;3.57;;;1.30;;
11817;SDS011;5966;52.402;5.322;2023-04-25T07:03:46;5.07;;;1.70;;
11817;SDS011;5966;52.402;5.322;2023-04-25T07:06:15;7.17;;;1.63;;
11817;SDS011;5966;52.402;5.322;2023-04-25T07:08:44;4.33;;;1.53;;
11817;SDS011;5966;52.402;5.322;2023-04-25T07:11:12;3.20;;;1.43;;
11817;SDS011;5966;52.402;5.322;2023-04-25T07:13:40;6.10;;;1.40;;
11817;SDS011;5966;52.402;5.322;2023-04-25T07:16:08;5.87;;;1.50;;
11817;SDS011;5966;52.402;5.322;2023-04-25T07:18:36;3.60;;;1.33;;
11817;SDS011;5966;52.402;5.322;2023-04-25T07:21:04;6.17;;;1.70;;
11817;SDS011;5966;52.402;5.322;2023-04-25T07:23:34;5.63;;;1.30;;
11817;SDS011;5966;52.402;5.322;2023-04-25T07:26:03;3.40;;;1.50;;
11817;SDS011;5966;52.402;5.322;2023-04-25T07:28:31;3.60;;;1.50;;
11817;SDS011;5966;52.402;5.322;2023-04-25T07:30:59;3.83;;;0.87;;
11817;SDS011;5966;52.402;5.322;2023-04-25T07:33:27;4.93;;;1.10;;
11817;SDS011;5966;52.402;5.322;2023-04-25T07:35:55;1.67;;;0.80;;
11817;SDS011;5966;52.402;5.322;2023-04-25T07:38:24;5.07;;;1.23;;
11817;SDS011;5966;52.402;5.322;2023-04-25T07:40:52;5.70;;;1.17;;
11817;SDS011;5966;52.402;5.322;2023-04-25T07:43:21;4.73;;;1.50;;
11817;SDS011;5966;52.402;5.322;2023-04-25T07:45:49;4.03;;;0.87;;
11817;SDS011;5966;52.402;5.322;2023-04-25T07:48:17;4.60;;;1.27;;
11817;SDS011;5966;52.402;5.322;2023-04-25T07:50:45;8.27;;;1.27;;
11817;SDS011;5966;52.402;5.322;2023-04-25T07:53:13;5.43;;;1.50;;
11817;SDS011;5966;52.402;5.322;2023-04-25T07:55:42;6.07;;;1.40;;
11817;SDS011;5966;52.402;5.322;2023-04-25T07:58:11;6.13;;;1.53;;
11817;SDS011;5966;52.402;5.322;2023-04-25T08:00:40;3.67;;;1.40;;
11817;SDS011;5966;52.402;5.322;2023-04-25T08:03:09;3.00;;;1.07;;
11817;SDS011;5966;52.402;5.322;2023-04-25T08:05:38;2.97;;;1.27;;
11817;SDS011;5966;52.402;5.322;2023-04-25T08:08:06;3.50;;;1.10;;
11817;SDS011;5966;52.402;5.322;2023-04-25T08:10:34;2.93;;;1.40;;
11817;SDS011;5966;52.402;5.322;2023-04-25T08:13:02;4.70;;;1.47;;
11817;SDS011;5966;52.402;5.322;2023-04-25T08:15:29;3.13;;;1.10;;
11817;SDS011;5966;52.402;5.322;2023-04-25T08:17:59;7.47;;;1.20;;
11817;SDS011;5966;52.402;5.322;2023-04-25T08:20:27;3.10;;;1.40;;
11817;SDS011;5966;52.402;5.322;2023-04-25T08:22:55;5.13;;;1.37;;
11817;SDS011;5966;52.402;5.322;2023-04-25T08:25:23;4.03;;;1.00;;
11817;SDS011;5966;52.402;5.322;2023-04-25T08:27:51;4.27;;;1.27;;
11817;SDS011;5966;52.402;5.322;2023-04-25T08:30:19;5.20;;;1.60;;
11817;SDS011;5966;52.402;5.322;2023-04-25T08:32:47;3.87;;;1.30;;
11817;SDS011;5966;52.402;5.322;2023-04-25T08:35:16;3.00;;;1.30;;
11817;SDS011;5966;52.402;5.322;2023-04-25T08:37:44;5.77;;;1.23;;
11817;SDS011;5966;52.402;5.322;2023-04-25T08:40:14;2.53;;;0.90;;
11817;SDS011;5966;52.402;5.322;2023-04-25T08:42:42;2.87;;;1.40;;
11817;SDS011;5966;52.402;5.322;2023-04-25T08:45:10;5.27;;;1.37;;
11817;SDS011;5966;52.402;5.322;2023-04-25T08:47:38;6.17;;;1.67;;
11817;SDS011;5966;52.402;5.322;2023-04-25T08:50:07;5.53;;;1.20;;
11817;SDS011;5966;52.402;5.322;2023-04-25T08:52:39;3.03;;;0.90;;
11817;SDS011;5966;52.402;5.322;2023-04-25T08:55:12;2.33;;;0.70;;
11817;SDS011;5966;52.402;5.322;2023-04-25T08:57:40;2.37;;;1.07;;
11817;SDS011;5966;52.402;5.322;2023-04-25T09:00:09;2.40;;;1.10;;
11817;SDS011;5966;52.402;5.322;2023-04-25T09:02:38;3.93;;;1.20;;
11817;SDS011;5966;52.402;5.322;2023-04-25T09:05:07;2.57;;;0.77;;
11817;SDS011;5966;52.402;5.322;2023-04-25T09:07:37;0.87;;;0.60;;
11817;SDS011;5966;52.402;5.322;2023-04-25T09:10:05;1.97;;;0.73;;
11817;SDS011;5966;52.402;5.322;2023-04-25T09:12:34;1.90;;;0.83;;
11817;SDS011;5966;52.402;5.322;2023-04-25T09:15:04;1.97;;;0.77;;
11817;SDS011;5966;52.402;5.322;2023-04-25T09:17:33;2.90;;;0.70;;
11817;SDS011;5966;52.402;5.322;2023-04-25T09:20:07;3.40;;;1.03;;
11817;SDS011;5966;52.402;5.322;2023-04-25T09:22:37;4.60;;;1.10;;
11817;SDS011;5966;52.402;5.322;2023-04-25T09:25:09;3.97;;;1.23;;
11817;SDS011;5966;52.402;5.322;2023-04-25T09:27:49;5.37;;;1.20;;
11817;SDS011;5966;52.402;5.322;2023-04-25T09:30:18;3.40;;;1.17;;
11817;SDS011;5966;52.402;5.322;2023-04-25T09:32:56;2.30;;;1.27;;
11817;SDS011;5966;52.402;5.322;2023-04-25T09:35:24;1.93;;;0.83;;
11817;SDS011;5966;52.402;5.322;2023-04-25T09:37:55;3.10;;;1.20;;
11817;SDS011;5966;52.402;5.322;2023-04-25T09:40:23;2.00;;;1.23;;
11817;SDS011;5966;52.402;5.322;2023-04-25T09:42:51;4.37;;;1.03;;
11817;SDS011;5966;52.402;5.322;2023-04-25T09:45:19;5.10;;;1.00;;
11817;SDS011;5966;52.402;5.322;2023-04-25T09:47:47;4.43;;;0.93;;
11817;SDS011;5966;52.402;5.322;2023-04-25T09:50:16;2.73;;;1.13;;
11817;SDS011;5966;52.402;5.322;2023-04-25T09:52:46;3.90;;;1.10;;
11817;SDS011;5966;52.402;5.322;2023-04-25T09:55:31;3.53;;;1.30;;
11817;SDS011;5966;52.402;5.322;2023-04-25T09:58:03;3.07;;;1.10;;
11817;SDS011;5966;52.402;5.322;2023-04-25T10:00:33;2.73;;;1.20;;
11817;SDS011;5966;52.402;5.322;2023-04-25T10:03:01;5.00;;;1.50;;
11817;SDS011;5966;52.402;5.322;2023-04-25T10:05:32;3.33;;;1.33;;
11817;SDS011;5966;52.402;5.322;2023-04-25T10:08:02;4.90;;;1.33;;
11817;SDS011;5966;52.402;5.322;2023-04-25T10:10:34;4.03;;;1.27;;
11817;SDS011;5966;52.402;5.322;2023-04-25T10:13:04;2.37;;;1.07;;
11817;SDS011;5966;52.402;5.322;2023-04-25T10:15:34;4.97;;;1.17;;
11817;SDS011;5966;52.402;5.322;2023-04-25T10:18:05;5.57;;;1.20;;
11817;SDS011;5966;52.402;5.322;2023-04-25T10:20:34;3.50;;;1.40;;
11817;SDS011;5966;52.402;5.322;2023-04-25T10:23:06;1.53;;;0.90;;
11817;SDS011;5966;52.402;5.322;2023-04-25T10:25:39;2.87;;;1.10;;
11817;SDS011;5966;52.402;5.322;2023-04-25T10:28:08;4.77;;;1.43;;
11817;SDS011;5966;52.402;5.322;2023-04-25T10:30:37;8.27;;;1.67;;
11817;SDS011;5966;52.402;5.322;2023-04-25T10:33:29;2.80;;;1.03;;
11817;SDS011;5966;52.402;5.322;2023-04-25T10:36:08;2.03;;;1.10;;
11817;SDS011;5966;52.402;5.322;2023-04-25T10:38:38;3.33;;;1.20;;
11817;SDS011;5966;52.402;5.322;2023-04-25T10:41:09;7.17;;;1.30;;
11817;SDS011;5966;52.402;5.322;2023-04-25T10:43:37;4.40;;;1.17;;
11817;SDS011;5966;52.402;5.322;2023-04-25T10:46:16;5.73;;;1.43;;
11817;SDS011;5966;52.402;5.322;2023-04-25T10:48:46;5.57;;;1.30;;
11817;SDS011;5966;52.402;5.322;2023-04-25T10:51:16;4.33;;;1.30;;
11817;SDS011;5966;52.402;5.322;2023-04-25T10:53:47;7.80;;;1.57;;
11817;SDS011;5966;52.402;5.322;2023-04-25T10:56:25;3.57;;;1.00;;
11817;SDS011;5966;52.402;5.322;2023-04-25T10:59:04;6.60;;;1.47;;
11817;SDS011;5966;52.402;5.322;2023-04-25T11:01:37;4.23;;;1.23;;
11817;SDS011;5966;52.402;5.322;2023-04-25T11:04:16;6.00;;;1.33;;
11817;SDS011;5966;52.402;5.322;2023-04-25T11:06:51;3.10;;;0.97;;
11817;SDS011;5966;52.402;5.322;2023-04-25T11:09:34;3.60;;;1.40;;
11817;SDS011;5966;52.402;5.322;2023-04-25T11:12:03;3.47;;;1.00;;
11817;SDS011;5966;52.402;5.322;2023-04-25T11:14:32;2.63;;;1.10;;
11817;SDS011;5966;52.402;5.322;2023-04-25T11:17:00;2.73;;;1.43;;
11817;SDS011;5966;52.402;5.322;2023-04-25T11:19:28;3.90;;;1.23;;
11817;SDS011;5966;52.402;5.322;2023-04-25T11:21:57;2.70;;;1.03;;
11817;SDS011;5966;52.402;5.322;2023-04-25T11:24:27;4.60;;;1.10;;
11817;SDS011;5966;52.402;5.322;2023-04-25T11:26:56;1.87;;;0.93;;
11817;SDS011;5966;52.402;5.322;2023-04-25T11:29:26;3.10;;;1.30;;
11817;SDS011;5966;52.402;5.322;2023-04-25T11:31:54;3.60;;;1.23;;
11817;SDS011;5966;52.402;5.322;2023-04-25T11:34:24;6.03;;;0.90;;
11817;SDS011;5966;52.402;5.322;2023-04-25T11:36:53;3.07;;;0.90;;
11817;SDS011;5966;52.402;5.322;2023-04-25T11:39:21;4.13;;;1.17;;
11817;SDS011;5966;52.402;5.322;2023-04-25T11:41:51;7.33;;;1.27;;
11817;SDS011;5966;52.402;5.322;2023-04-25T11:44:21;1.90;;;0.77;;
11817;SDS011;5966;52.402;5.322;2023-04-25T11:46:49;3.73;;;1.10;;
11817;SDS011;5966;52.402;5.322;2023-04-25T11:49:17;1.70;;;1.00;;
11817;SDS011;5966;52.402;5.322;2023-04-25T11:51:46;3.47;;;1.23;;
11817;SDS011;5966;52.402;5.322;2023-04-25T11:54:15;3.27;;;1.17;;
11817;SDS011;5966;52.402;5.322;2023-04-25T11:56:44;2.03;;;0.97;;
11817;SDS011;5966;52.402;5.322;2023-04-25T11:59:12;2.30;;;1.17;;
11817;SDS011;5966;52.402;5.322;2023-04-25T12:01:48;3.37;;;1.23;;
11817;SDS011;5966;52.402;5.322;2023-04-25T12:04:17;4.10;;;0.80;;
11817;SDS011;5966;52.402;5.322;2023-04-25T12:06:48;3.00;;;0.93;;
11817;SDS011;5966;52.402;5.322;2023-04-25T12:09:18;2.37;;;1.00;;
11817;SDS011;5966;52.402;5.322;2023-04-25T12:11:48;4.20;;;1.33;;
11817;SDS011;5966;52.402;5.322;2023-04-25T12:14:23;4.67;;;1.03;;
11817;SDS011;5966;52.402;5.322;2023-04-25T12:16:55;3.97;;;1.10;;
11817;SDS011;5966;52.402;5.322;2023-04-25T12:19:24;2.17;;;0.93;;
11817;SDS011;5966;52.402;5.322;2023-04-25T12:21:53;3.97;;;1.00;;
11817;SDS011;5966;52.402;5.322;2023-04-25T12:24:24;3.27;;;0.80;;
11817;SDS011;5966;52.402;5.322;2023-04-25T12:26:58;5.13;;;1.10;;
11817;SDS011;5966;52.402;5.322;2023-04-25T12:29:28;4.60;;;1.47;;
11817;SDS011;5966;52.402;5.322;2023-04-25T12:32:14;4.30;;;1.00;;
11817;SDS011;5966;52.402;5.322;2023-04-25T12:34:43;2.97;;;1.10;;
11817;SDS011;5966;52.402;5.322;2023-04-25T12:37:11;4.17;;;1.40;;
11817;SDS011;5966;52.402;5.322;2023-04-25T12:39:39;4.77;;;1.20;;
11817;SDS011;5966;52.402;5.322;2023-04-25T12:42:07;4.80;;;1.10;;
11817;SDS011;5966;52.402;5.322;2023-04-25T12:44:37;0.73;;;0.70;;
11817;SDS011;5966;52.402;5.322;2023-04-25T12:47:06;3.90;;;1.10;;
11817;SDS011;5966;52.402;5.322;2023-04-25T12:49:35;4.53;;;1.70;;
11817;SDS011;5966;52.402;5.322;2023-04-25T12:52:03;6.50;;;1.53;;
11817;SDS011;5966;52.402;5.322;2023-04-25T12:54:31;3.93;;;1.27;;
11817;SDS011;5966;52.402;5.322;2023-04-25T12:56:59;4.20;;;1.27;;
11817;SDS011;5966;52.402;5.322;2023-04-25T12:59:28;4.10;;;1.63;;
11817;SDS011;5966;52.402;5.322;2023-04-25T13:01:56;4.80;;;1.53;;
11817;SDS011;5966;52.402;5.322;2023-04-25T13:04:24;5.10;;;1.43;;
11817;SDS011;5966;52.402;5.322;2023-04-25T13:06:54;3.93;;;1.10;;
11817;SDS011;5966;52.402;5.322;2023-04-25T13:09:22;6.33;;;1.43;;
11817;SDS011;5966;52.402;5.322;2023-04-25T13:11:50;3.43;;;1.17;;
11817;SDS011;5966;52.402;5.322;2023-04-25T13:14:22;4.60;;;1.20;;
11817;SDS011;5966;52.402;5.322;2023-04-25T13:16:50;4.03;;;1.07;;
11817;SDS011;5966;52.402;5.322;2023-04-25T13:19:18;4.00;;;1.10;;
11817;SDS011;5966;52.402;5.322;2023-04-25T13:21:47;3.90;;;1.40;;
11817;SDS011;5966;52.402;5.322;2023-04-25T13:24:16;3.37;;;1.20;;
11817;SDS011;5966;52.402;5.322;2023-04-25T13:26:44;4.27;;;1.37;;
11817;SDS011;5966;52.402;5.322;2023-04-25T13:29:12;4.27;;;1.20;;
11817;SDS011;5966;52.402;5.322;2023-04-25T13:31:40;5.53;;;1.10;;
11817;SDS011;5966;52.402;5.322;2023-04-25T13:34:08;4.83;;;1.20;;
11817;SDS011;5966;52.402;5.322;2023-04-25T13:36:36;4.33;;;1.40;;
11817;SDS011;5966;52.402;5.322;2023-04-25T13:39:04;4.33;;;1.13;;
11817;SDS011;5966;52.402;5.322;2023-04-25T13:41:33;2.73;;;1.27;;
11817;SDS011;5966;52.402;5.322;2023-04-25T13:44:01;4.10;;;1.43;;
11817;SDS011;5966;52.402;5.322;2023-04-25T13:46:29;3.07;;;1.30;;
11817;SDS011;5966;52.402;5.322;2023-04-25T13:49:12;3.97;;;1.13;;
11817;SDS011;5966;52.402;5.322;2023-04-25T13:51:40;4.63;;;1.30;;
11817;SDS011;5966;52.402;5.322;2023-04-25T13:54:08;3.57;;;1.07;;
11817;SDS011;5966;52.402;5.322;2023-04-25T13:56:38;4.93;;;1.33;;
11817;SDS011;5966;52.402;5.322;2023-04-25T13:59:08;2.37;;;0.97;;
11817;SDS011;5966;52.402;5.322;2023-04-25T14:01:36;2.43;;;1.17;;
11817;SDS011;5966;52.402;5.322;2023-04-25T14:04:04;4.87;;;1.40;;
11817;SDS011;5966;52.402;5.322;2023-04-25T14:06:32;4.97;;;1.13;;
11817;SDS011;5966;52.402;5.322;2023-04-25T14:09:00;2.63;;;1.20;;
11817;SDS011;5966;52.402;5.322;2023-04-25T14:11:30;2.23;;;1.00;;
11817;SDS011;5966;52.402;5.322;2023-04-25T14:13:59;3.20;;;1.30;;
11817;SDS011;5966;52.402;5.322;2023-04-25T14:16:27;3.13;;;1.13;;
11817;SDS011;5966;52.402;5.322;2023-04-25T14:18:56;2.33;;;1.10;;
11817;SDS011;5966;52.402;5.322;2023-04-25T14:21:24;3.23;;;1.23;;
11817;SDS011;5966;52.402;5.322;2023-04-25T14:23:53;4.63;;;1.23;;
11817;SDS011;5966;52.402;5.322;2023-04-25T14:26:21;1.87;;;1.10;;
11817;SDS011;5966;52.402;5.322;2023-04-25T14:28:49;4.03;;;1.33;;
11817;SDS011;5966;52.402;5.322;2023-04-25T14:31:19;2.73;;;1.10;;
11817;SDS011;5966;52.402;5.322;2023-04-25T14:33:47;4.37;;;1.07;;
11817;SDS011;5966;52.402;5.322;2023-04-25T14:36:17;2.83;;;1.30;;
11817;SDS011;5966;52.402;5.322;2023-04-25T14:38:47;5.20;;;1.03;;
11817;SDS011;5966;52.402;5.322;2023-04-25T14:41:15;4.73;;;1.43;;
11817;SDS011;5966;52.402;5.322;2023-04-25T14:43:43;2.40;;;1.10;;
11817;SDS011;5966;52.402;5.322;2023-04-25T14:46:11;3.43;;;1.10;;
11817;SDS011;5966;52.402;5.322;2023-04-25T14:48:41;4.30;;;1.43;;
11817;SDS011;5966;52.402;5.322;2023-04-25T14:51:09;2.10;;;1.13;;
11817;SDS011;5966;52.402;5.322;2023-04-25T14:53:37;3.67;;;1.17;;
11817;SDS011;5966;52.402;5.322;2023-04-25T14:56:07;2.73;;;1.20;;
11817;SDS011;5966;52.402;5.322;2023-04-25T14:58:36;2.93;;;1.23;;
11817;SDS011;5966;52.402;5.322;2023-04-25T15:01:05;1.33;;;0.87;;
11817;SDS011;5966;52.402;5.322;2023-04-25T15:03:34;1.47;;;0.90;;
11817;SDS011;5966;52.402;5.322;2023-04-25T15:06:04;1.73;;;1.00;;
11817;SDS011;5966;52.402;5.322;2023-04-25T15:08:32;3.33;;;1.20;;
11817;SDS011;5966;52.402;5.322;2023-04-25T15:11:02;3.30;;;1.20;;